Flight Track Log - Related Links

Times and Time Zones

All times are in EDT time to prevent confusion due to time zone crossing. See the SKW5631 flight status page for this flight to view local times or setup timezone preferences in your user account.

Time Position Orientation Groundspeed Altitude Reporting Facility
EDT Latitude Longitude Course Direction KTS MPH feet Rate Location/Type
Wed 02:40:12 PM 37.6667 -122.3667 133° Southeast 186 214 1,900  Level Northern Cal TRACON
Wed 02:41:06 PM 37.7000 -122.4000 322° Northwest 254 292 3,600 2,421 Climbing Northern Cal TRACON
Wed 02:42:06 PM 37.6833 -122.4833 256° West 286 329 6,500 2,859 Climbing Northern Cal TRACON
Wed 02:43:14 PM 37.5939 -122.4831 180° South 290 334 9,700 2,262 Climbing Oakland Center
Wed 02:44:16 PM 37.5225 -122.4322 151° Southeast 323 372 11,400 1,902 Climbing Oakland Center
Wed 02:45:00 PM 37.2480 -122.0806 133° Southeast  Level FlightAware Approximate
Wed 02:45:17 PM 37.4636 -122.3358 128° Southeast 344 396 13,600  Level Oakland Center
Wed 02:46:19 PM 37.4017 -122.2372 128° Southeast 358 412 15,500 1,902 Climbing Oakland Center
Wed 02:47:20 PM 37.3364 -122.1331 128° Southeast 377 434 17,500 2,115 Climbing Oakland Center
Wed 02:48:21 PM 37.2547 -122.0036 128° Southeast 393 452 19,800 2,000 Climbing Oakland Center
Wed 02:49:23 PM 37.1844 -121.8919 128° Southeast 406 467 21,600 1,756 Climbing Oakland Center
Wed 02:50:24 PM 37.1103 -121.7725 128° Southeast 413 475 23,400 1,561 Climbing Oakland Center
Wed 02:51:26 PM 37.0411 -121.6639 129° Southeast 422 486 24,800 1,122 Climbing Oakland Center
Wed 02:52:27 PM 36.9664 -121.5456 128° Southeast 434 499 25,700 878 Climbing Oakland Center
Wed 02:53:29 PM 36.8875 -121.4211 128° Southeast 453 521 26,600 976 Climbing Oakland Center
Wed 02:54:30 PM 36.8000 -121.2847 129° Southeast 462 532 27,700 1,230 Climbing Oakland Center
Wed 02:55:31 PM 36.7194 -121.1583 128° Southeast 466 536 29,100 1,415 Climbing Oakland Center
Wed 02:56:33 PM 36.6400 -121.0328 128° Southeast 462 532 30,600 927 Climbing Oakland Center
Wed 02:57:34 PM 36.5592 -120.9119 130° Southeast 463 533 31,000 195 Climbing Oakland Center
Wed 02:58:36 PM 36.4775 -120.7853 129° Southeast 468 539 31,000  Level Oakland Center
Wed 02:59:37 PM 36.3942 -120.6578 129° Southeast 474 545 31,000  Level Oakland Center
Wed 03:00:39 PM 36.2939 -120.5050 129° Southeast 474 545 31,000  Level Oakland Center
Wed 03:01:40 PM 36.2103 -120.3786 129° Southeast 474 545 31,000  Level Oakland Center
Wed 03:02:41 PM 36.1292 -120.2558 129° Southeast 460 529 31,000  Level Oakland Center
Wed 03:03:43 PM 36.0475 -120.1339 130° Southeast 459 528 31,000  Level Oakland Center
Wed 03:04:44 PM 35.9667 -120.0139 130° Southeast 452 520 31,000  Level Oakland Center
Wed 03:05:46 PM 35.8828 -119.8886 130° Southeast 466 536 31,000  Level Oakland Center
Wed 03:06:47 PM 35.8006 -119.7653 129° Southeast 463 533 31,000  Level Oakland Center
Wed 03:07:49 PM 35.7178 -119.6419 130° Southeast 463 533 31,000  Level Oakland Center
Wed 03:08:50 PM 35.6325 -119.5181 130° Southeast 469 540 31,000  Level Oakland Center
Wed 03:09:51 PM 35.5494 -119.3956 130° Southeast 467 537 31,000  Level Oakland Center
Wed 03:10:50 PM 35.4686 -119.2739 129° Southeast 464 534 31,000  Level Los Angeles Center
Wed 03:11:52 PM 35.3869 -119.1539 130° Southeast 459 528 31,000  Level Los Angeles Center
Wed 03:12:54 PM 35.2903 -119.0100 129° Southeast 456 525 31,000  Level Los Angeles Center
Wed 03:13:56 PM 35.2094 -118.8933 130° Southeast 450 518 31,000 -387 Level Los Angeles Center
Wed 03:14:58 PM 35.1283 -118.7772 130° Southeast 448 516 30,200 -1,016 Descending Los Angeles Center
Wed 03:16:00 PM 35.0461 -118.6594 130° Southeast 455 524 28,900 -1,355 Descending Los Angeles Center
Wed 03:17:02 PM 34.9644 -118.5433 131° Southeast 452 520 27,400 -1,500 Descending Los Angeles Center
Wed 03:18:04 PM 34.8769 -118.4161 130° Southeast 452 520 25,800 -1,488 Descending Los Angeles Center
Wed 03:19:07 PM 34.7958 -118.2997 130° Southeast 454 522 24,300 -1,440 Descending Los Angeles Center
Wed 03:20:09 PM 34.7158 -118.1869 131° Southeast 446 513 22,800 -1,452 Descending Los Angeles Center
Wed 03:21:11 PM 34.6397 -118.0775 130° Southeast 429 494 21,300 -1,306 Descending Los Angeles Center
Wed 03:22:13 PM 34.5717 -117.9350 120° Southeast 410 472 20,100 -629 Descending Los Angeles Center
Wed 03:23:15 PM 34.5150 -117.8133 119° Southeast 415 478 20,000 -48 Descending Los Angeles Center
Wed 03:24:17 PM 34.4572 -117.6881 119° Southeast 426 490 20,000 -435 Level Los Angeles Center
Wed 03:25:19 PM 34.4017 -117.5667 119° Southeast 418 481 19,100 -1,113 Descending Los Angeles Center
Wed 03:26:21 PM 34.3422 -117.4344 119° Southeast 392 451 17,700 -968 Descending Los Angeles Center
Wed 03:27:23 PM 34.2894 -117.3189 119° Southeast 387 445 17,100 -339 Descending Los Angeles Center
Wed 03:28:25 PM 34.2342 -117.2031 120° Southeast 395 455 17,000 -480 Descending Los Angeles Center
Wed 03:29:28 PM 34.1778 -117.0858 120° Southeast 391 450 16,100 -774 Descending Los Angeles Center
Wed 03:30:29 PM 34.1375 -116.9978 119° Southeast 379 436 15,400 -1,016 Descending Los Angeles Center
Wed 03:31:32 PM 34.0678 -116.8492 119° Southeast 380 437 14,000 -672 Descending Los Angeles Center
Wed 03:32:34 PM 34.0217 -116.7508 119° Southeast 333 383 14,000 -823 Level Los Angeles Center
Wed 03:33:36 PM 34.0183 -116.6531 92° East 304 350 12,300 -1,645 Descending Los Angeles Center
Wed 03:34:38 PM 34.0267 -116.5686 83° East 257 296 10,600 -1,984 Descending Los Angeles Center
Wed 03:35:40 PM 33.9853 -116.5417 152° Southeast 204 235 8,200 -1,984 Descending Los Angeles Center
Wed 03:36:42 PM 33.9292 -116.5483 186° South 192 221 6,500 -2,477 Descending Los Angeles Center
Wed 03:38:32 PM 33.8500 -116.5333 171° South 141 162 1,100 -2,945 Descending Southern California TRACON
Wed 03:40:00 PM 33.8297 -116.5067 239° Southwest  Level Estimated
Wed 03:47:00 PM 33.8297 -116.5067 239° Southwest  Level Estimated

Login

Don't have an account? Register now (free) for customized features, flight alerts, and more!